createdAt,value
2023-02-12T00:00:57.739Z,99684.98
2023-02-12T00:02:18.439Z,99687.40
2023-02-12T00:03:18.985Z,99694.34
2023-02-12T00:04:19.352Z,99690.70
2023-02-12T00:05:19.753Z,99690.11
2023-02-12T00:06:20.955Z,99690.72
2023-02-12T00:07:21.397Z,99690.52
2023-02-12T00:08:21.727Z,99694.80
2023-02-12T00:09:22.370Z,99697.19
2023-02-12T00:10:23.323Z,99696.63
2023-02-12T00:11:27.409Z,99695.43
2023-02-12T00:12:27.830Z,99693.77
2023-02-12T00:13:30.614Z,99697.75
2023-02-12T00:14:31.125Z,99699.44
2023-02-12T00:15:33.982Z,99701.48
2023-02-12T00:16:34.694Z,99701.94
2023-02-12T00:17:35.236Z,99702.45
2023-02-12T00:18:36.018Z,99700.61
2023-02-12T00:19:36.393Z,99705.95
2023-02-12T00:20:38.176Z,99709.20
2023-02-12T00:21:38.658Z,99708.65
2023-02-12T00:22:39.050Z,99711.68
2023-02-12T00:23:40.816Z,99715.63
2023-02-12T00:24:41.358Z,99716.09
2023-02-12T00:25:41.927Z,99715.30
2023-02-12T00:26:42.592Z,99717.20
2023-02-12T00:27:43.116Z,99719.34
2023-02-12T00:28:44.435Z,99719.80
2023-02-12T00:29:44.889Z,99717.95
2023-02-12T00:30:45.453Z,99717.75
2023-02-12T00:31:46.184Z,99719.62
2023-02-12T00:32:46.677Z,99720.77
2023-02-12T00:33:47.319Z,99717.77
2023-02-12T00:34:47.970Z,99718.52
2023-02-12T00:35:58.939Z,99725.13
2023-02-12T00:36:59.557Z,99726.52
2023-02-12T00:38:00.372Z,99732.61
2023-02-12T00:39:01.402Z,99736.27
2023-02-12T00:40:02.098Z,99734.02
2023-02-12T00:41:02.549Z,99739.33
2023-02-12T00:42:04.359Z,99740.07
2023-02-12T00:43:05.349Z,99740.70
2023-02-12T00:44:06.753Z,99745.88
2023-02-12T00:45:08.819Z,99749.99
2023-02-12T00:46:09.398Z,99757.48
2023-02-12T00:47:10.360Z,99761.21
2023-02-12T00:48:10.918Z,99761.25
2023-02-12T00:49:11.305Z,99765.88
2023-02-12T00:50:12.108Z,99767.73
2023-02-12T00:51:14.829Z,99768.75
2023-02-12T00:52:15.436Z,99767.79
2023-02-12T00:53:17.090Z,99774.84
2023-02-12T00:54:17.818Z,99777.75
2023-02-12T00:55:18.744Z,99781.30
2023-02-12T00:56:19.186Z,99786.75
2023-02-12T00:57:22.398Z,99788.63
2023-02-12T00:58:23.664Z,99788.23
2023-02-12T00:59:25.388Z,99791.36
2023-02-12T01:00:26.109Z,99793.80
2023-02-12T01:01:26.858Z,99797.69
2023-02-12T01:02:27.406Z,99796.55
2023-02-12T01:03:28.172Z,99797.67
2023-02-12T01:04:28.575Z,99804.98
2023-02-12T01:05:30.161Z,99814.38
2023-02-12T01:06:30.752Z,99814.04
2023-02-12T01:07:31.348Z,99818.46
2023-02-12T01:08:32.419Z,99812.33
2023-02-12T01:09:32.806Z,99813.48
2023-02-12T01:10:34.337Z,99808.75
2023-02-12T01:11:34.802Z,99811.73
2023-02-12T01:12:35.330Z,99812.38
2023-02-12T01:13:35.794Z,99819.52
2023-02-12T01:14:36.241Z,99820.85
2023-02-12T01:15:37.490Z,99822.61
2023-02-12T01:16:39.783Z,99831.02
2023-02-12T01:17:40.281Z,99837.17
2023-02-12T01:18:42.799Z,99832.67
2023-02-12T01:19:43.247Z,99834.04
2023-02-12T01:20:43.683Z,99830.20
2023-02-12T01:21:44.113Z,99824.89
2023-02-12T01:22:45.379Z,99827.26
2023-02-12T01:23:48.563Z,99825.23
2023-02-12T01:24:49.095Z,99829.29
2023-02-12T01:25:49.535Z,99830.93
2023-02-12T01:26:49.934Z,99834.17
2023-02-12T01:27:53.796Z,99838.98
2023-02-12T01:28:58.602Z,99838.59
2023-02-12T01:30:00.221Z,99840.69
2023-02-12T01:31:00.735Z,99840.77
2023-02-12T01:32:01.362Z,99844.12
2023-02-12T01:33:01.940Z,99840.53
2023-02-12T01:34:03.927Z,99842.63
2023-02-12T01:35:07.821Z,99841.16
2023-02-12T01:36:09.519Z,99848.40
2023-02-12T01:37:09.973Z,99848.81
2023-02-12T01:38:10.415Z,99851.11
2023-02-12T01:39:11.907Z,99854.30
2023-02-12T01:40:17.333Z,99856.98
2023-02-12T01:41:23.556Z,99858.35
2023-02-12T01:42:24.030Z,99854.04
2023-02-12T01:43:24.442Z,99856.23
2023-02-12T01:44:29.196Z,99860.58
2023-02-12T01:45:48.462Z,99862.55
2023-02-12T01:46:56.053Z,99869.89
2023-02-12T01:48:01.085Z,99869.26
2023-02-12T01:49:06.773Z,99870.95
2023-02-12T01:50:12.448Z,99871.23
2023-02-12T01:51:19.729Z,99874.70
2023-02-12T01:52:29.870Z,99870.75
2023-02-12T01:53:44.123Z,99873.34
2023-02-12T01:54:48.230Z,99871.73
2023-02-12T01:55:54.890Z,99873.05
2023-02-12T01:56:56.590Z,99872.61
2023-02-12T01:57:57.650Z,99872.48
2023-02-12T01:58:58.518Z,99874.24
2023-02-12T02:00:05.778Z,99874.98
2023-02-12T02:01:28.150Z,99881.67
2023-02-12T02:02:31.465Z,99885.03
2023-02-12T02:03:35.401Z,99882.30
2023-02-12T02:04:55.150Z,99886.14
2023-02-12T02:06:05.699Z,99882.77
2023-02-12T02:07:10.531Z,99882.36
2023-02-12T02:08:12.623Z,99882.05
2023-02-12T02:09:13.959Z,99884.23
2023-02-12T02:10:14.574Z,99886.93
2023-02-12T02:11:33.948Z,99882.42
2023-02-12T02:12:54.985Z,99885.17
2023-02-12T02:14:14.842Z,99887.70
2023-02-12T02:15:15.307Z,99893.80
2023-02-12T02:16:29.044Z,99893.32
2023-02-12T02:17:48.481Z,99893.41
2023-02-12T02:19:01.965Z,99891.48
2023-02-12T02:20:36.606Z,99889.17
2023-02-12T02:22:17.866Z,99892.59
2023-02-12T02:23:41.783Z,99893.55
2023-02-12T02:25:03.596Z,99889.87
2023-02-12T02:26:33.553Z,99891.30
2023-02-12T02:28:11.441Z,99894.05
2023-02-12T02:29:37.140Z,99898.75
2023-02-12T02:30:53.620Z,99900.70
2023-02-12T02:32:17.754Z,99904.52
2023-02-12T02:33:26.267Z,99912.90
2023-02-12T02:34:46.573Z,99918.13
2023-02-12T02:36:13.315Z,99922.67
2023-02-12T02:37:25.334Z,99922.21
2023-02-12T02:38:59.830Z,99924.05
2023-02-12T02:40:18.884Z,99928.52
2023-02-12T02:41:37.528Z,99930.15
2023-02-12T02:43:10.509Z,99933.78
2023-02-12T02:44:28.686Z,99938.73
2023-02-12T02:45:35.457Z,99942.03
2023-02-12T02:46:46.390Z,99943.89
2023-02-12T02:48:05.541Z,99950.16
2023-02-12T02:49:13.169Z,99952.82
2023-02-12T02:50:22.406Z,99957.60
2023-02-12T02:51:32.940Z,99962.05
2023-02-12T02:52:42.429Z,99964.37
2023-02-12T02:54:08.936Z,99967.19
2023-02-12T02:55:14.800Z,99965.86
2023-02-12T02:56:20.217Z,99967.45
2023-02-12T02:57:57.498Z,99969.91
2023-02-12T02:59:08.998Z,99972.75
2023-02-12T03:00:17.928Z,99978.60
2023-02-12T03:01:27.620Z,99988.52
2023-02-12T03:02:34.761Z,99988.16
2023-02-12T03:03:57.960Z,99993.07
2023-02-12T03:05:03.100Z,99996.36
2023-02-12T03:06:13.311Z,99997.05
2023-02-12T03:07:28.917Z,99996.55
2023-02-12T03:08:37.086Z,99994.36
2023-02-12T03:09:44.880Z,99991.73
2023-02-12T03:11:03.090Z,99989.92
2023-02-12T03:12:13.886Z,99994.82
2023-02-12T03:13:25.471Z,99993.77
2023-02-12T03:14:36.299Z,100001.63
2023-02-12T03:15:46.417Z,100005.56
2023-02-12T03:17:08.303Z,100004.91
2023-02-12T03:18:18.942Z,100004.84
2023-02-12T03:19:24.614Z,100008.83
2023-02-12T03:20:30.679Z,100014.09
2023-02-12T03:21:40.829Z,100015.45
2023-02-12T03:23:16.686Z,100018.55
2023-02-12T03:24:35.422Z,100025.85
2023-02-12T03:25:50.234Z,100021.89
2023-02-12T03:27:02.677Z,100020.98
2023-02-12T03:28:17.836Z,100022.14
2023-02-12T03:29:18.572Z,100021.23
2023-02-12T03:30:21.326Z,100021.44
2023-02-12T03:31:54.017Z,100018.30
2023-02-12T03:33:03.699Z,100019.09
2023-02-12T03:34:13.384Z,100019.11
2023-02-12T03:35:13.840Z,100023.05
2023-02-12T03:36:37.653Z,100026.88
2023-02-12T03:38:17.844Z,100029.20
2023-02-12T03:39:28.916Z,100030.02
2023-02-12T03:41:01.675Z,100033.41
2023-02-12T03:42:09.907Z,100035.42
2023-02-12T03:43:29.672Z,100036.93
2023-02-12T03:44:42.038Z,100038.83
2023-02-12T03:46:14.832Z,100042.57
2023-02-12T03:47:45.075Z,100048.45
2023-02-12T03:49:00.568Z,100051.10
2023-02-12T03:50:13.612Z,100049.60
2023-02-12T03:51:25.322Z,100051.77
2023-02-12T03:52:26.499Z,100049.37
2023-02-12T03:53:29.959Z,100050.64
2023-02-12T03:54:31.326Z,100055.48
2023-02-12T03:55:40.128Z,100057.85
2023-02-12T03:56:51.960Z,100060.26
2023-02-12T03:58:00.620Z,100059.68
2023-02-12T03:59:02.322Z,100058.33
2023-02-12T04:00:08.372Z,100057.62
2023-02-12T04:01:14.887Z,100062.95
2023-02-12T04:02:18.380Z,100064.43
2023-02-12T04:03:19.197Z,100065.73
2023-02-12T04:04:20.929Z,100071.03
2023-02-12T04:05:25.087Z,100073.39
2023-02-12T04:06:30.697Z,100075.34
2023-02-12T04:07:31.949Z,100080.63
2023-02-12T04:08:32.939Z,100083.73
2023-02-12T04:09:33.371Z,100083.80
2023-02-12T04:11:07.452Z,100080.51
2023-02-12T04:12:46.461Z,100082.95
2023-02-12T04:14:03.386Z,100087.61
2023-02-12T04:15:37.365Z,100088.05
2023-02-12T04:16:50.439Z,100095.01
2023-02-12T04:18:06.921Z,100089.29
2023-02-12T04:19:14.293Z,100092.45
2023-02-12T04:20:41.017Z,100089.73
2023-02-12T04:22:27.685Z,100094.19
2023-02-12T04:23:28.234Z,100091.97
2023-02-12T04:25:06.337Z,100097.61
2023-02-12T04:26:23.835Z,100098.66
2023-02-12T04:27:33.511Z,100101.64
2023-02-12T04:28:47.530Z,100108.31
2023-02-12T04:30:01.709Z,100112.79
2023-02-12T04:31:05.053Z,100116.38
2023-02-12T04:32:28.100Z,100119.04
2023-02-12T04:33:56.755Z,100119.47
2023-02-12T04:35:18.677Z,100119.08
2023-02-12T04:36:26.596Z,100120.01
2023-02-12T04:37:39.449Z,100117.05
2023-02-12T04:38:51.435Z,100122.69
2023-02-12T04:39:54.164Z,100123.52
2023-02-12T04:40:56.133Z,100126.94
2023-02-12T04:42:01.452Z,100127.77
2023-02-12T04:43:02.142Z,100132.02
2023-02-12T04:44:24.700Z,100130.59
2023-02-12T04:45:32.424Z,100132.59
2023-02-12T04:46:33.428Z,100132.87
2023-02-12T04:47:33.891Z,100131.34
2023-02-12T04:48:44.461Z,100131.20
2023-02-12T04:49:45.257Z,100130.62
2023-02-12T04:50:46.023Z,100135.67
2023-02-12T04:51:48.473Z,100134.59
2023-02-12T04:52:49.086Z,100141.58
2023-02-12T04:55:04.487Z,100141.05
2023-02-12T04:56:05.424Z,100142.70
2023-02-12T04:57:05.850Z,100139.74
2023-02-12T04:58:06.634Z,100142.58
2023-02-12T04:59:07.093Z,100139.83
2023-02-12T05:00:12.740Z,100140.20
2023-02-12T05:01:13.210Z,100138.16
2023-02-12T05:02:13.861Z,100130.17
2023-02-12T05:03:14.243Z,100132.69
2023-02-12T05:04:17.377Z,100131.27
2023-02-12T05:05:17.885Z,100132.56
2023-02-12T05:06:18.752Z,100133.97
2023-02-12T05:07:19.115Z,100134.70
2023-02-12T05:08:19.561Z,100132.90
2023-02-12T05:09:21.913Z,100133.63
2023-02-12T05:10:23.013Z,100133.90
2023-02-12T05:11:24.156Z,100133.63
2023-02-12T05:12:24.583Z,100135.06
2023-02-12T05:13:25.048Z,100134.66
2023-02-12T05:14:25.534Z,100133.68
2023-02-12T05:15:26.126Z,100133.90
2023-02-12T05:16:26.912Z,100137.10
2023-02-12T05:17:27.478Z,100141.75
2023-02-12T05:18:27.838Z,100141.45
2023-02-12T05:19:28.332Z,100146.30
2023-02-12T05:20:28.853Z,100147.55
2023-02-12T05:21:30.329Z,100147.30
2023-02-12T05:22:31.482Z,100149.59
2023-02-12T05:23:35.260Z,100152.80
2023-02-12T05:24:36.842Z,100154.96
2023-02-12T05:25:37.304Z,100153.13
2023-02-12T05:26:37.648Z,100155.77
2023-02-12T05:27:38.177Z,100157.81
2023-02-12T05:28:38.666Z,100158.52
2023-02-12T05:29:39.180Z,100157.23
2023-02-12T05:30:39.717Z,100160.83
2023-02-12T05:31:40.334Z,100159.95
2023-02-12T05:32:40.884Z,100159.77
2023-02-12T05:33:43.578Z,100162.21
2023-02-12T05:34:43.965Z,100167.05
2023-02-12T05:35:44.579Z,100166.50
2023-02-12T05:36:45.130Z,100169.39
2023-02-12T05:37:45.580Z,100166.09
2023-02-12T05:38:46.631Z,100171.34
2023-02-12T05:39:49.711Z,100175.06
2023-02-12T05:40:50.253Z,100175.36
2023-02-12T05:41:50.805Z,100177.30
2023-02-12T05:42:51.141Z,100180.21
2023-02-12T05:43:52.779Z,100180.94
2023-02-12T05:44:53.227Z,100182.44
2023-02-12T05:45:54.104Z,100185.96
2023-02-12T05:46:54.581Z,100185.96
2023-02-12T05:47:56.245Z,100187.42
2023-02-12T05:48:56.772Z,100187.89
2023-02-12T05:49:57.100Z,100189.17
2023-02-12T05:51:08.255Z,100189.70
2023-02-12T05:52:08.953Z,100191.84
2023-02-12T05:53:09.411Z,100189.81
2023-02-12T05:54:10.849Z,100191.05
2023-02-12T05:55:11.450Z,100194.54
2023-02-12T05:56:25.412Z,100195.77
2023-02-12T05:57:26.305Z,100202.83
2023-02-12T05:58:26.669Z,100206.91
2023-02-12T05:59:27.404Z,100207.31
2023-02-12T06:00:28.140Z,100206.98
2023-02-12T06:01:35.257Z,100207.93
2023-02-12T06:02:36.587Z,100204.03
2023-02-12T06:03:37.328Z,100208.44
2023-02-12T06:04:37.852Z,100208.44
2023-02-12T06:05:38.456Z,100211.34
2023-02-12T06:06:41.506Z,100211.65
2023-02-12T06:07:42.298Z,100210.11
2023-02-12T06:08:43.312Z,100213.03
2023-02-12T06:09:44.094Z,100211.38
2023-02-12T06:10:44.639Z,100214.00
2023-02-12T06:11:45.319Z,100216.73
2023-02-12T06:12:45.822Z,100219.88
2023-02-12T06:13:47.726Z,100224.52
2023-02-12T06:14:48.206Z,100225.50
2023-02-12T06:15:48.617Z,100227.27
2023-02-12T06:16:51.263Z,100234.10
2023-02-12T06:17:51.613Z,100235.73
2023-02-12T06:18:54.327Z,100237.63
2023-02-12T06:19:55.033Z,100238.52
2023-02-12T06:20:55.781Z,100242.10
2023-02-12T06:21:56.458Z,100246.96
2023-02-12T06:22:57.055Z,100244.40
2023-02-12T06:23:58.689Z,100245.70
2023-02-12T06:24:59.492Z,100249.11
2023-02-12T06:26:00.076Z,100249.51
2023-02-12T06:27:00.434Z,100255.34
2023-02-12T06:28:00.987Z,100257.45
2023-02-12T06:29:01.609Z,100262.09
2023-02-12T06:30:02.145Z,100263.95
2023-02-12T06:31:03.505Z,100265.77
2023-02-12T06:32:04.285Z,100262.70
2023-02-12T06:33:04.969Z,100260.84
2023-02-12T06:34:08.729Z,100265.13
2023-02-12T06:35:09.241Z,100264.30
2023-02-12T06:36:09.789Z,100263.71
2023-02-12T06:37:11.722Z,100260.40
2023-02-12T06:38:12.181Z,100259.77
2023-02-12T06:39:14.770Z,100259.23
2023-02-12T06:40:15.492Z,100261.11
2023-02-12T06:41:16.023Z,100258.66
2023-02-12T06:42:16.667Z,100260.02
2023-02-12T06:43:17.736Z,100264.34
2023-02-12T06:44:18.159Z,100265.32
2023-02-12T06:45:18.625Z,100263.58
2023-02-12T06:46:19.439Z,100268.58
2023-02-12T06:47:19.958Z,100270.67
2023-02-12T06:48:20.364Z,100269.70
2023-02-12T06:49:20.891Z,100269.50
2023-02-12T06:50:21.490Z,100275.52
2023-02-12T06:51:22.846Z,100281.52
2023-02-12T06:52:23.238Z,100279.39
2023-02-12T06:53:23.626Z,100285.01
2023-02-12T06:54:24.153Z,100287.41
2023-02-12T06:55:24.870Z,100284.02
2023-02-12T06:56:26.445Z,100289.01
2023-02-12T06:57:29.230Z,100290.36
2023-02-12T06:58:30.097Z,100296.10
2023-02-12T06:59:30.804Z,100303.77
2023-02-12T07:00:31.525Z,100303.72
2023-02-12T07:01:32.361Z,100306.73
2023-02-12T07:02:32.997Z,100308.35
2023-02-12T07:03:33.882Z,100307.30
2023-02-12T07:04:34.385Z,100313.66
2023-02-12T07:05:37.134Z,100316.33
2023-02-12T07:06:38.032Z,100318.33
2023-02-12T07:07:38.422Z,100318.38
2023-02-12T07:08:40.015Z,100316.73
2023-02-12T07:09:40.621Z,100314.14
2023-02-12T07:10:41.137Z,100320.83
2023-02-12T07:11:41.750Z,100324.25
2023-02-12T07:12:42.326Z,100318.40
2023-02-12T07:13:44.440Z,100321.48
2023-02-12T07:14:45.071Z,100319.44
2023-02-12T07:15:45.585Z,100320.94
2023-02-12T07:16:46.029Z,100324.20
2023-02-12T07:17:46.504Z,100322.41
2023-02-12T07:18:47.622Z,100322.05
2023-02-12T07:19:47.997Z,100325.24
2023-02-12T07:20:48.343Z,100325.68
2023-02-12T07:21:48.904Z,100323.90
2023-02-12T07:22:49.438Z,100326.36
2023-02-12T07:23:52.579Z,100326.46
2023-02-12T07:24:53.230Z,100328.23
2023-02-12T07:25:58.193Z,100329.35
2023-02-12T07:26:58.946Z,100327.04
2023-02-12T07:27:59.590Z,100329.80
2023-02-12T07:29:00.166Z,100331.63
2023-02-12T07:30:00.828Z,100331.38
2023-02-12T07:31:11.331Z,100331.11
2023-02-12T07:32:12.159Z,100329.95
2023-02-12T07:33:13.111Z,100327.56
2023-02-12T07:34:13.623Z,100329.87
2023-02-12T07:35:14.108Z,100326.63
2023-02-12T07:36:19.286Z,100327.27
2023-02-12T07:37:22.279Z,100328.08
2023-02-12T07:38:22.776Z,100335.48
2023-02-12T07:39:23.445Z,100335.41
2023-02-12T07:40:23.829Z,100342.73
2023-02-12T07:41:28.450Z,100345.23
2023-02-12T07:42:29.582Z,100346.36
2023-02-12T07:43:32.544Z,100348.39
2023-02-12T07:44:34.033Z,100347.54
2023-02-12T07:45:34.429Z,100348.43
2023-02-12T07:46:41.944Z,100351.05
2023-02-12T07:47:42.355Z,100354.53
2023-02-12T07:48:44.146Z,100351.30
2023-02-12T07:49:44.629Z,100354.11
2023-02-12T07:50:45.018Z,100353.21
2023-02-12T07:51:46.511Z,100353.02
2023-02-12T07:52:51.979Z,100356.90
2023-02-12T07:53:53.633Z,100356.25
2023-02-12T07:54:54.003Z,100359.70
2023-02-12T07:55:54.743Z,100361.47
2023-02-12T07:56:55.347Z,100367.88
2023-02-12T07:57:55.801Z,100365.77
2023-02-12T07:58:57.692Z,100366.52
2023-02-12T07:59:58.108Z,100371.23
2023-02-12T08:00:58.530Z,100368.06
2023-02-12T08:02:00.310Z,100372.48
2023-02-12T08:03:00.761Z,100373.28
2023-02-12T08:04:07.069Z,100374.27
2023-02-12T08:05:07.694Z,100372.66
2023-02-12T08:06:20.415Z,100376.91
2023-02-12T08:07:20.836Z,100375.88
2023-02-12T08:08:21.226Z,100374.45
2023-02-12T08:09:25.357Z,100373.27
2023-02-12T08:10:25.922Z,100374.02
2023-02-12T08:11:28.612Z,100374.92
2023-02-12T08:12:29.024Z,100370.06
2023-02-12T08:13:29.578Z,100372.06
2023-02-12T08:14:30.210Z,100369.33
2023-02-12T08:15:30.665Z,100371.06
2023-02-12T08:16:35.427Z,100372.25
2023-02-12T08:17:35.947Z,100373.31
2023-02-12T08:18:36.365Z,100373.25
2023-02-12T08:19:36.877Z,100370.88
2023-02-12T08:20:37.364Z,100370.95
2023-02-12T08:21:38.740Z,100374.20
2023-02-12T08:22:39.134Z,100372.03
2023-02-12T08:23:40.228Z,100370.20
2023-02-12T08:24:42.075Z,100365.46
2023-02-12T08:25:42.522Z,100366.19
2023-02-12T08:26:43.714Z,100368.26
2023-02-12T08:27:44.090Z,100372.03
2023-02-12T08:28:47.681Z,100369.77
2023-02-12T08:29:48.572Z,100369.21
2023-02-12T08:30:49.337Z,100368.45
2023-02-12T08:31:56.382Z,100363.61
2023-02-12T08:32:56.786Z,100361.04
2023-02-12T08:33:58.336Z,100363.67
2023-02-12T08:34:58.873Z,100361.08
2023-02-12T08:36:10.792Z,100360.77
2023-02-12T08:37:11.309Z,100362.00
2023-02-12T08:38:11.647Z,100358.75
2023-02-12T08:39:12.982Z,100362.15
2023-02-12T08:40:13.582Z,100361.25
2023-02-12T08:41:20.657Z,100363.77
2023-02-12T08:42:25.023Z,100365.63
2023-02-12T08:43:26.690Z,100356.59
2023-02-12T08:44:28.415Z,100361.06
2023-02-12T08:45:28.836Z,100362.30
2023-02-12T08:46:32.772Z,100362.10
2023-02-12T08:47:33.662Z,100363.21
2023-02-12T08:48:35.237Z,100362.81
2023-02-12T08:49:35.691Z,100365.95
2023-02-12T08:50:36.201Z,100369.97
2023-02-12T08:51:40.307Z,100370.67
2023-02-12T08:52:43.033Z,100371.80
2023-02-12T08:53:46.879Z,100376.20
2023-02-12T08:54:47.391Z,100378.69
2023-02-12T08:55:50.928Z,100384.23
2023-02-12T08:56:56.422Z,100388.06
2023-02-12T08:57:57.666Z,100387.54
2023-02-12T08:58:59.793Z,100384.10
2023-02-12T09:00:00.376Z,100383.28
2023-02-12T09:01:01.817Z,100383.10
2023-02-12T09:02:03.895Z,100387.44
2023-02-12T09:03:04.669Z,100390.69
2023-02-12T09:04:06.026Z,100392.04
2023-02-12T09:05:06.566Z,100395.13
2023-02-12T09:06:08.744Z,100393.86
2023-02-12T09:07:10.971Z,100395.67
2023-02-12T09:08:12.105Z,100392.94
2023-02-12T09:09:14.212Z,100392.55
2023-02-12T09:10:15.085Z,100393.55
2023-02-12T09:11:23.486Z,100394.75
2023-02-12T09:12:23.967Z,100395.19
2023-02-12T09:13:25.192Z,100397.36
2023-02-12T09:14:25.596Z,100395.31
2023-02-12T09:15:25.929Z,100395.66
2023-02-12T09:16:27.976Z,100393.76
2023-02-12T09:17:29.923Z,100394.16
2023-02-12T09:18:31.798Z,100396.08
2023-02-12T09:19:32.343Z,100397.86
2023-02-12T09:20:36.449Z,100397.29
2023-02-12T09:21:37.033Z,100399.39
2023-02-12T09:22:38.130Z,100401.29
2023-02-12T09:23:39.818Z,100396.73
2023-02-12T09:24:40.498Z,100397.89
2023-02-12T09:25:44.641Z,100401.31
2023-02-12T09:26:45.114Z,100400.95
2023-02-12T09:27:46.111Z,100402.68
2023-02-12T09:28:49.141Z,100404.28
2023-02-12T09:29:49.591Z,100410.39
2023-02-12T09:30:50.847Z,100412.94
2023-02-12T09:31:51.596Z,100412.70
2023-02-12T09:32:52.151Z,100412.01
2023-02-12T09:34:06.510Z,100415.23
2023-02-12T09:35:08.148Z,100416.63
2023-02-12T09:36:13.189Z,100416.23
2023-02-12T09:37:14.224Z,100417.09
2023-02-12T09:38:15.044Z,100419.76
2023-02-12T09:39:16.123Z,100420.85
2023-02-12T09:40:32.210Z,100422.17
2023-02-12T09:41:48.421Z,100424.50
2023-02-12T09:43:07.112Z,100425.52
2023-02-12T09:44:25.032Z,100429.06
2023-02-12T09:45:33.256Z,100427.41
2023-02-12T09:47:04.958Z,100431.13
2023-02-12T09:48:05.684Z,100427.84
2023-02-12T09:49:28.122Z,100428.04
2023-02-12T09:50:28.871Z,100427.60
2023-02-12T09:51:31.613Z,100430.27
2023-02-12T09:52:34.910Z,100429.47
2023-02-12T09:53:45.174Z,100429.52
2023-02-12T09:54:48.640Z,100428.00
2023-02-12T09:55:49.274Z,100428.88
2023-02-12T09:56:57.770Z,100427.96
2023-02-12T09:58:03.918Z,100425.84
2023-02-12T09:59:08.280Z,100425.50
2023-02-12T10:00:30.607Z,100424.08
2023-02-12T10:01:31.523Z,100424.96
2023-02-12T10:02:36.330Z,100423.36
2023-02-12T10:03:37.182Z,100420.68
2023-02-12T10:04:43.981Z,100420.27
2023-02-12T10:06:01.040Z,100423.62
2023-02-12T10:07:14.871Z,100428.61
2023-02-12T10:08:49.853Z,100423.48
2023-02-12T10:10:29.463Z,100423.46
2023-02-12T10:11:54.338Z,100422.85
2023-02-12T10:13:07.120Z,100424.42
2023-02-12T10:14:52.936Z,100423.70
2023-02-12T10:16:30.016Z,100419.75
2023-02-12T10:17:37.815Z,100419.12
2023-02-12T10:19:11.156Z,100416.39
2023-02-12T10:20:29.187Z,100419.90
2023-02-12T10:21:51.600Z,100419.26
2023-02-12T10:23:32.355Z,100422.92
2023-02-12T10:25:03.813Z,100415.42
2023-02-12T10:26:28.511Z,100412.61
2023-02-12T10:27:41.082Z,100410.73
2023-02-12T10:28:43.105Z,100412.35
2023-02-12T10:29:48.709Z,100409.33
2023-02-12T10:31:00.020Z,100409.02
2023-02-12T10:32:35.205Z,100411.95
2023-02-12T10:33:48.328Z,100413.14
2023-02-12T10:34:51.847Z,100407.90
2023-02-12T10:36:13.559Z,100409.05
2023-02-12T10:37:31.990Z,100406.83
2023-02-12T10:38:42.299Z,100407.58
2023-02-12T10:39:56.281Z,100408.29
2023-02-12T10:41:01.378Z,100406.89
2023-02-12T10:42:12.222Z,100410.98
2023-02-12T10:43:13.568Z,100410.92
2023-02-12T10:44:14.535Z,100404.63
2023-02-12T10:45:18.394Z,100407.62
2023-02-12T10:46:19.137Z,100409.51
2023-02-12T10:47:23.271Z,100409.83
2023-02-12T10:48:35.336Z,100409.83
2023-02-12T10:49:35.893Z,100405.25
2023-02-12T10:51:07.909Z,100407.03
2023-02-12T10:52:44.399Z,100406.88
2023-02-12T10:53:45.810Z,100406.29
2023-02-12T10:54:50.430Z,100409.40
2023-02-12T10:56:06.077Z,100408.59
2023-02-12T10:57:29.951Z,100408.00
2023-02-12T10:58:30.573Z,100408.29
2023-02-12T10:59:31.248Z,100404.46
2023-02-12T11:00:37.832Z,100406.23
2023-02-12T11:01:40.533Z,100406.18
2023-02-12T11:03:00.628Z,100406.52
2023-02-12T11:04:22.347Z,100404.88
2023-02-12T11:05:28.152Z,100402.27
2023-02-12T11:06:32.413Z,100401.34
2023-02-12T11:07:46.775Z,100395.64
2023-02-12T11:08:47.732Z,100395.90
2023-02-12T11:09:50.814Z,100397.36
2023-02-12T11:10:52.327Z,100396.59
2023-02-12T11:11:52.934Z,100397.80
2023-02-12T11:12:54.767Z,100395.20
2023-02-12T11:14:16.832Z,100394.20
2023-02-12T11:15:22.975Z,100394.45
2023-02-12T11:16:28.574Z,100395.13
2023-02-12T11:17:40.669Z,100395.50
2023-02-12T11:18:42.184Z,100393.35
2023-02-12T11:19:42.956Z,100393.77
2023-02-12T11:20:52.746Z,100391.85
2023-02-12T11:22:18.320Z,100392.95
2023-02-12T11:23:34.726Z,100393.98
2023-02-12T11:24:37.218Z,100393.84
2023-02-12T11:25:37.680Z,100397.29
2023-02-12T11:26:38.079Z,100396.39
2023-02-12T11:27:39.329Z,100390.10
2023-02-12T11:28:59.082Z,100394.89
2023-02-12T11:30:19.461Z,100395.63
2023-02-12T11:31:22.001Z,100397.31
2023-02-12T11:32:22.742Z,100394.88
2023-02-12T11:33:24.903Z,100391.05
2023-02-12T11:34:25.895Z,100394.52
2023-02-12T11:35:27.846Z,100392.82
2023-02-12T11:36:28.510Z,100392.49
2023-02-12T11:37:36.205Z,100396.02
2023-02-12T11:38:47.255Z,100390.80
2023-02-12T11:39:50.818Z,100394.55
2023-02-12T11:40:57.980Z,100397.27
2023-02-12T11:42:24.862Z,100395.26
2023-02-12T11:43:29.722Z,100401.33
2023-02-12T11:44:39.807Z,100405.36
2023-02-12T11:45:52.712Z,100405.55
2023-02-12T11:47:03.210Z,100400.91
2023-02-12T11:48:18.728Z,100404.82
2023-02-12T11:49:26.565Z,100404.90
2023-02-12T11:50:31.098Z,100402.63
2023-02-12T11:51:32.178Z,100402.92
2023-02-12T11:52:37.200Z,100397.38
2023-02-12T11:53:46.635Z,100392.86
2023-02-12T11:54:50.512Z,100390.26
2023-02-12T11:56:21.172Z,100392.25
2023-02-12T11:57:42.259Z,100394.04
2023-02-12T11:58:44.271Z,100395.17
2023-02-12T11:59:46.860Z,100394.38
2023-02-12T12:01:02.500Z,100392.48
2023-02-12T12:02:23.083Z,100395.50
2023-02-12T12:03:51.732Z,100396.24
2023-02-12T12:04:59.518Z,100398.66
2023-02-12T12:06:27.000Z,100402.60
2023-02-12T12:07:34.745Z,100403.20
2023-02-12T12:08:44.065Z,100403.77
2023-02-12T12:09:56.234Z,100402.80
2023-02-12T12:11:17.334Z,100401.98
2023-02-12T12:12:39.945Z,100396.83
2023-02-12T12:13:59.490Z,100397.34
2023-02-12T12:15:29.927Z,100394.02
2023-02-12T12:16:56.464Z,100393.95
2023-02-12T12:18:49.499Z,100395.83
2023-02-12T12:20:12.979Z,100400.25
2023-02-12T12:21:36.368Z,100403.18
2023-02-12T12:23:15.887Z,100403.20
2023-02-12T12:24:39.681Z,100397.41
2023-02-12T12:25:47.633Z,100399.25
2023-02-12T12:27:03.770Z,100397.38
2023-02-12T12:28:29.663Z,100393.65
2023-02-12T12:30:06.156Z,100394.76
2023-02-12T12:31:19.186Z,100391.96
2023-02-12T12:32:24.878Z,100391.08
2023-02-12T12:33:47.460Z,100394.59
2023-02-12T12:34:48.191Z,100394.02
2023-02-12T12:36:13.160Z,100394.19
2023-02-12T12:37:41.092Z,100392.08
2023-02-12T12:39:11.979Z,100381.02
2023-02-12T12:40:42.111Z,100390.42
2023-02-12T12:42:16.603Z,100387.40
2023-02-12T12:43:28.027Z,100384.48
2023-02-12T12:44:41.455Z,100386.30
2023-02-12T12:45:50.755Z,100387.50
2023-02-12T12:46:54.273Z,100386.17
2023-02-12T12:48:10.086Z,100384.23
2023-02-12T12:49:43.189Z,100379.50
2023-02-12T12:51:08.789Z,100379.23